Time;durP1;ratioP1;P1;durP2;ratioP2;P2;SDS_P1;SDS_P2;PMS_P1;PMS_P2;Temp;Humidity;BMP_temperature;BMP_pressure;BME280_temperature;BME280_humidity;BME280_pressure;Samples;Min_cycle;Max_cycle;Signal;HPM_P1;HPM_P2
2022/04/23 00:02:10;;;;;;;4.78;4.35;;;20.50;49.80;;;;;;5050788;28;20183;-72
2022/04/23 00:04:37;;;;;;;5.20;4.70;;;20.50;49.80;;;;;;5050696;28;20194;-72
2022/04/23 00:07:05;;;;;;;4.82;4.28;;;20.50;49.90;;;;;;5050486;28;20186;-71
2022/04/23 00:09:32;;;;;;;5.55;4.95;;;20.50;49.90;;;;;;5050939;28;20206;-72
2022/04/23 00:11:59;;;;;;;5.70;5.20;;;20.50;49.90;;;;;;5067254;28;20182;-72
2022/04/23 00:14:26;;;;;;;5.55;5.07;;;20.50;49.90;;;;;;5067337;28;20281;-71
2022/04/23 00:16:53;;;;;;;5.72;5.22;;;20.40;49.90;;;;;;5069023;28;20579;-69
2022/04/23 00:19:20;;;;;;;5.72;5.18;;;20.40;49.80;;;;;;5056698;28;20348;-72
2022/04/23 00:21:46;;;;;;;5.60;5.13;;;20.50;49.90;;;;;;5055738;28;20189;-72
2022/04/23 00:24:12;;;;;;;5.90;5.40;;;20.40;49.80;;;;;;5069738;28;20532;-72
2022/04/23 00:26:40;;;;;;;5.32;4.82;;;20.40;49.90;;;;;;5067483;28;20214;-72
2022/04/23 00:29:06;;;;;;;5.10;4.70;;;20.40;49.90;;;;;;5067249;28;20843;-72
2022/04/23 00:31:31;;;;;;;4.68;4.28;;;20.40;49.90;;;;;;5050387;28;20238;-72
2022/04/23 00:33:57;;;;;;;4.55;4.25;;;20.40;49.90;;;;;;5050654;28;20273;-72
2022/04/23 00:36:23;;;;;;;5.72;4.57;;;20.40;49.90;;;;;;5052244;28;20260;-72
2022/04/23 00:38:52;;;;;;;4.80;4.40;;;20.40;49.90;;;;;;5053765;28;20232;-72
2022/04/23 00:44:05;;;;;;;4.80;4.40;;;20.40;49.90;;;;;;5053888;28;20209;-72
2022/04/23 00:46:31;;;;;;;4.80;4.40;;;20.50;50.00;;;;;;5070613;28;20182;-72
2022/04/23 00:49:00;;;;;;;4.45;4.15;;;20.40;49.90;;;;;;5070261;28;20267;-72
2022/04/23 00:51:29;;;;;;;5.30;4.90;;;20.40;49.90;;;;;;5070861;28;20244;-71
2022/04/23 00:53:56;;;;;;;5.40;5.00;;;20.40;49.90;;;;;;5070353;28;20186;-72
2022/04/23 00:56:25;;;;;;;5.03;4.63;;;20.40;50.00;;;;;;5070308;28;20248;-72
2022/04/23 00:58:52;;;;;;;7.30;5.88;;;20.40;49.90;;;;;;5070312;28;20217;-72
2022/04/23 01:01:23;;;;;;;6.30;5.70;;;20.40;50.00;;;;;;5070510;28;20179;-72
2022/04/23 01:03:50;;;;;;;5.93;5.45;;;20.40;50.00;;;;;;5054968;28;20170;-72
2022/04/23 01:06:18;;;;;;;5.88;5.35;;;20.40;50.00;;;;;;5070040;28;20175;-72
2022/04/23 01:08:45;;;;;;;5.53;5.03;;;20.40;50.00;;;;;;5053411;28;20226;-72
2022/04/23 01:11:11;;;;;;;5.07;4.65;;;20.40;50.00;;;;;;5070111;28;20178;-72
2022/04/23 01:13:37;;;;;;;4.80;4.40;;;20.40;50.00;;;;;;5060002;28;20565;-72
2022/04/23 01:16:07;;;;;;;4.85;4.38;;;20.40;50.00;;;;;;5053604;28;20183;-72
2022/04/23 01:18:36;;;;;;;4.80;4.40;;;20.40;50.00;;;;;;5070050;28;20692;-72
2022/04/23 01:21:04;;;;;;;4.90;4.50;;;20.40;50.00;;;;;;5053537;28;20186;-72
2022/04/23 01:23:30;;;;;;;5.13;4.72;;;20.40;50.00;;;;;;5053301;28;20206;-72
2022/04/23 01:25:57;;;;;;;4.85;4.45;;;20.40;50.00;;;;;;5053446;28;20632;-72
2022/04/23 01:28:28;;;;;;;4.90;4.50;;;20.40;50.00;;;;;;5052929;28;20206;-72
2022/04/23 01:30:57;;;;;;;4.57;4.25;;;20.40;50.00;;;;;;5053194;28;20181;-72
2022/04/23 01:33:23;;;;;;;5.03;4.63;;;20.40;50.00;;;;;;5053124;28;20198;-72
2022/04/23 01:35:49;;;;;;;5.40;4.90;;;20.40;50.00;;;;;;5053151;28;20174;-72
2022/04/23 01:38:15;;;;;;;5.88;5.38;;;20.40;50.00;;;;;;5052637;28;20221;-71
2022/04/23 01:40:41;;;;;;;5.78;5.28;;;20.40;50.00;;;;;;5052772;28;20186;-72
2022/04/23 01:43:10;;;;;;;5.72;5.22;;;20.40;50.00;;;;;;5052910;28;20190;-72
2022/04/23 01:45:38;;;;;;;6.70;6.07;;;20.40;50.00;;;;;;5052786;28;20221;-72
2022/04/23 01:48:05;;;;;;;6.80;6.18;;;20.40;50.10;;;;;;5052454;28;20213;-72
2022/04/23 01:50:32;;;;;;;6.68;6.07;;;20.40;50.10;;;;;;5053081;28;20187;-72
2022/04/23 01:52:58;;;;;;;6.50;6.00;;;20.40;50.10;;;;;;5052972;28;20175;-72
2022/04/23 01:55:24;;;;;;;5.85;5.35;;;20.40;50.10;;;;;;5036070;28;20177;-72
2022/04/23 01:57:50;;;;;;;5.03;4.63;;;20.40;50.10;;;;;;5052383;28;20212;-71
2022/04/23 02:00:16;;;;;;;5.13;4.72;;;20.40;50.10;;;;;;5052874;28;20174;-71
2022/04/23 02:02:43;;;;;;;5.00;4.60;;;20.40;50.10;;;;;;5052422;28;20562;-72
2022/04/23 02:05:10;;;;;;;5.15;4.70;;;20.40;50.10;;;;;;5052894;28;20198;-72
2022/04/23 02:07:44;;;;;;;4.85;4.45;;;20.30;50.00;;;;;;5052312;28;20276;-72
2022/04/23 02:10:13;;;;;;;4.88;4.40;;;20.40;50.20;;;;;;5052732;28;20206;-72
2022/04/23 02:12:40;;;;;;;4.90;4.50;;;20.40;50.10;;;;;;5052383;28;20277;-72
2022/04/23 02:15:08;;;;;;;5.00;4.60;;;20.40;50.20;;;;;;5052250;28;20200;-71
2022/04/23 02:17:37;;;;;;;5.03;4.63;;;20.40;50.10;;;;;;5052394;28;20601;-71
2022/04/23 02:20:04;;;;;;;5.40;4.90;;;20.40;50.10;;;;;;5052445;28;20277;-72
2022/04/23 02:22:30;;;;;;;4.80;4.40;;;20.40;50.20;;;;;;5036270;28;20183;-72
2022/04/23 02:24:56;;;;;;;4.93;4.53;;;20.40;50.10;;;;;;5051425;28;20206;-72
2022/04/23 02:27:24;;;;;;;5.57;5.07;;;20.30;50.00;;;;;;5068560;28;20185;-72
2022/04/23 02:29:54;;;;;;;5.65;5.15;;;20.30;50.10;;;;;;5033783;28;20238;-72
2022/04/23 02:32:20;;;;;;;6.07;5.63;;;20.40;50.20;;;;;;5068439;28;20213;-72
2022/04/23 02:34:47;;;;;;;5.80;5.40;;;20.30;50.10;;;;;;5068598;28;20183;-71
2022/04/23 02:37:13;;;;;;;6.72;6.13;;;20.30;50.10;;;;;;5051785;28;20213;-72
2022/04/23 02:39:39;;;;;;;5.78;5.30;;;20.30;50.10;;;;;;5052875;28;20206;-72
2022/04/23 02:42:06;;;;;;;5.20;4.80;;;20.30;50.10;;;;;;5035410;28;20233;-72
2022/04/23 02:44:34;;;;;;;5.30;4.90;;;20.30;50.10;;;;;;5068388;28;20174;-72
2022/04/23 02:47:00;;;;;;;4.95;4.55;;;20.30;50.10;;;;;;5068389;28;20642;-72
2022/04/23 02:49:26;;;;;;;4.75;4.35;;;20.30;50.10;;;;;;5051330;28;20213;-72
2022/04/23 02:51:51;;;;;;;4.88;4.40;;;20.40;50.20;;;;;;5068374;28;20221;-72
2022/04/23 02:54:18;;;;;;;4.47;4.10;;;20.30;50.10;;;;;;5068245;28;20573;-72
2022/04/23 02:56:45;;;;;;;4.60;4.20;;;20.30;50.80;;;;;;5052658;28;20249;-72
2022/04/23 02:59:12;;;;;;;4.80;4.43;;;20.30;50.10;;;;;;5050832;28;20206;-71
2022/04/23 03:01:39;;;;;;;4.10;3.80;;;20.30;50.10;;;;;;5067910;28;20183;-72
2022/04/23 03:04:05;;;;;;;4.43;4.03;;;20.30;50.10;;;;;;5034922;28;20186;-72
2022/04/23 03:06:33;;;;;;;4.35;4.05;;;20.30;50.20;;;;;;5051454;28;20188;-72
2022/04/23 03:09:03;;;;;;;4.57;4.18;;;20.30;50.10;;;;;;5051062;28;20210;-72
2022/04/23 03:11:32;;;;;;;4.65;4.35;;;20.30;50.10;;;;;;5034649;28;20190;-72
2022/04/23 03:13:59;;;;;;;5.18;4.68;;;20.30;50.20;;;;;;5051519;28;20186;-72
2022/04/23 03:16:28;;;;;;;5.22;4.82;;;20.30;50.20;;;;;;5051503;28;20214;-71
2022/04/23 03:18:56;;;;;;;5.78;5.30;;;20.30;50.10;;;;;;5051194;28;20265;-72
2022/04/23 03:21:22;;;;;;;6.25;5.65;;;20.30;50.20;;;;;;5051124;28;20189;-72
2022/04/23 03:23:48;;;;;;;5.85;5.35;;;20.30;50.20;;;;;;5051100;28;20182;-72
2022/04/23 03:26:14;;;;;;;4.70;4.30;;;20.30;50.20;;;;;;5034819;28;20546;-72
2022/04/23 03:28:41;;;;;;;5.22;4.63;;;20.30;50.20;;;;;;5067684;28;20203;-72
2022/04/23 03:31:08;;;;;;;5.38;4.97;;;20.30;50.20;;;;;;5067878;28;20189;-72
2022/04/23 03:33:34;;;;;;;4.85;4.45;;;20.30;50.20;;;;;;5067935;28;20162;-71
2022/04/23 03:36:02;;;;;;;4.50;4.15;;;20.30;50.20;;;;;;5067835;28;20181;-72
2022/04/23 03:38:28;;;;;;;4.07;3.78;;;20.30;50.20;;;;;;5067638;28;20206;-71
2022/04/23 03:40:54;;;;;;;4.15;3.85;;;20.30;50.20;;;;;;5052262;28;20193;-71
2022/04/23 03:43:20;;;;;;;4.30;4.00;;;20.30;50.20;;;;;;5067676;28;20642;-72
2022/04/23 03:45:47;;;;;;;4.22;3.92;;;20.30;50.20;;;;;;5050810;28;20233;-72
2022/04/23 03:48:14;;;;;;;3.80;3.50;;;20.30;50.20;;;;;;5050603;28;20218;-72
2022/04/23 03:50:42;;;;;;;4.10;3.80;;;20.30;50.20;;;;;;5068134;28;20202;-72
2022/04/23 03:53:08;;;;;;;4.10;3.80;;;20.30;50.20;;;;;;5034231;28;20187;-72
2022/04/23 03:55:35;;;;;;;3.58;3.35;;;20.20;50.10;;;;;;5067551;28;20187;-72
2022/04/23 03:58:02;;;;;;;4.13;3.83;;;20.30;50.20;;;;;;5067464;28;20300;-72
2022/04/23 04:00:31;;;;;;;4.10;3.80;;;20.30;50.20;;;;;;5051348;28;20186;-73
2022/04/23 04:02:57;;;;;;;4.40;4.10;;;20.30;50.20;;;;;;5050491;28;20610;-72
2022/04/23 04:05:24;;;;;;;4.65;4.28;;;20.30;50.20;;;;;;5034367;28;20186;-72
2022/04/23 04:07:52;;;;;;;5.32;4.85;;;20.30;50.20;;;;;;5050891;28;20199;-71
2022/04/23 04:10:20;;;;;;;4.25;3.95;;;20.30;50.20;;;;;;5036053;28;20182;-72
2022/04/23 04:12:49;;;;;;;4.82;4.45;;;20.30;50.20;;;;;;5054479;28;20185;-72
2022/04/23 04:15:16;;;;;;;5.30;4.90;;;20.30;50.20;;;;;;5071420;28;20181;-72
2022/04/23 04:17:45;;;;;;;5.18;4.78;;;20.20;50.20;;;;;;5071016;28;20198;-72
2022/04/23 04:20:14;;;;;;;5.03;4.53;;;20.30;50.20;;;;;;5071505;28;20214;-72
2022/04/23 04:22:41;;;;;;;4.95;4.43;;;20.30;50.20;;;;;;5055623;28;20186;-72
2022/04/23 04:25:09;;;;;;;3.58;3.38;;;20.30;50.80;;;;;;5037775;28;20189;-72
2022/04/23 04:27:36;;;;;;;4.05;3.75;;;20.30;50.20;;;;;;5037900;28;20189;-71
2022/04/23 04:30:05;;;;;;;3.88;3.55;;;20.30;50.30;;;;;;5055431;28;20209;-72
2022/04/23 04:32:31;;;;;;;3.38;3.10;;;20.20;50.20;;;;;;5054382;28;20186;-72
2022/04/23 04:34:57;;;;;;;3.65;3.35;;;20.20;50.20;;;;;;5037814;28;20254;-72
2022/04/23 04:37:24;;;;;;;3.63;3.33;;;20.30;50.20;;;;;;5055285;28;20232;-72
2022/04/23 04:39:50;;;;;;;3.45;3.25;;;20.30;50.20;;;;;;5055130;28;20195;-72
2022/04/23 04:42:16;;;;;;;3.70;3.40;;;20.30;50.20;;;;;;5070783;28;20212;-72
2022/04/23 04:44:42;;;;;;;3.75;3.45;;;20.30;50.20;;;;;;5055454;28;20178;-71
2022/04/23 04:47:09;;;;;;;3.60;3.30;;;20.30;50.20;;;;;;5054806;28;20181;-72
2022/04/23 04:49:36;;;;;;;3.72;3.42;;;20.30;50.20;;;;;;5053672;28;20225;-72
2022/04/23 04:52:02;;;;;;;3.90;3.60;;;20.30;50.20;;;;;;5083226;22;20222;-68
2022/04/23 04:54:28;;;;;;;3.92;3.63;;;20.30;50.20;;;;;;5075370;28;20173;-70
2022/04/23 04:56:56;;;;;;;5.13;4.72;;;20.30;50.20;;;;;;5057100;28;20201;-70
2022/04/23 04:59:22;;;;;;;4.50;4.10;;;20.20;50.20;;;;;;5057242;28;20170;-70
2022/04/23 05:01:53;;;;;;;4.03;3.72;;;20.20;50.20;;;;;;5057803;28;20182;-70
2022/04/23 05:04:20;;;;;;;4.68;4.38;;;20.20;50.20;;;;;;5075216;28;20177;-70
2022/04/23 05:06:46;;;;;;;4.20;3.90;;;20.20;50.20;;;;;;5075275;28;20273;-70
2022/04/23 05:09:12;;;;;;;4.45;4.05;;;20.20;50.20;;;;;;5040799;28;20182;-70
2022/04/23 05:11:38;;;;;;;4.20;3.90;;;20.20;50.20;;;;;;5074230;28;20564;-70
2022/04/23 05:14:03;;;;;;;3.60;3.30;;;20.20;50.20;;;;;;5057454;28;20193;-70
2022/04/23 05:16:29;;;;;;;4.05;3.75;;;20.20;50.20;;;;;;5075204;28;20198;-70
2022/04/23 05:18:55;;;;;;;3.33;3.13;;;20.20;50.80;;;;;;5073686;28;20235;-70
2022/04/23 05:21:21;;;;;;;3.55;3.25;;;20.20;50.20;;;;;;5056502;28;20177;-70
2022/04/23 05:23:47;;;;;;;3.30;3.10;;;20.20;50.20;;;;;;5057419;28;20202;-70
2022/04/23 05:26:12;;;;;;;3.35;3.08;;;20.20;50.30;;;;;;5073982;28;20177;-70
2022/04/23 05:28:40;;;;;;;3.25;3.05;;;20.20;50.20;;;;;;5056698;28;20212;-70
2022/04/23 05:31:07;;;;;;;3.10;2.90;;;20.20;50.20;;;;;;5056935;28;20216;-70
2022/04/23 05:33:33;;;;;;;3.45;3.22;;;20.20;50.20;;;;;;5057163;28;20206;-70
2022/04/23 05:36:00;;;;;;;2.70;2.50;;;20.20;50.20;;;;;;5056896;28;20565;-69
2022/04/23 05:38:25;;;;;;;2.80;2.60;;;20.20;50.20;;;;;;5074301;28;20256;-70
2022/04/23 05:40:51;;;;;;;2.90;2.70;;;20.20;50.20;;;;;;5056695;28;20217;-69
2022/04/23 05:43:17;;;;;;;3.17;2.97;;;20.20;50.20;;;;;;5056365;28;20229;-70
2022/04/23 05:45:44;;;;;;;3.35;3.15;;;20.20;50.20;;;;;;5056667;28;20606;-70
2022/04/23 05:48:11;;;;;;;4.03;3.72;;;20.20;50.20;;;;;;5056347;28;20190;-70
2022/04/23 05:50:37;;;;;;;3.53;3.33;;;20.20;50.20;;;;;;5073358;28;20212;-70
2022/04/23 05:53:03;;;;;;;4.03;3.72;;;20.20;50.20;;;;;;5056582;28;20701;-70
2022/04/23 05:55:29;;;;;;;4.18;3.85;;;20.20;50.20;;;;;;5072850;28;20212;-70
2022/04/23 05:57:54;;;;;;;3.65;3.35;;;20.20;50.20;;;;;;5056362;28;20214;-70
2022/04/23 06:00:21;;;;;;;3.50;3.30;;;20.20;50.20;;;;;;5056479;28;20174;-70
2022/04/23 06:02:47;;;;;;;3.95;3.65;;;20.20;50.20;;;;;;5056238;28;20212;-70
2022/04/23 06:05:13;;;;;;;3.08;2.88;;;20.20;50.20;;;;;;5056313;28;20185;-70
2022/04/23 06:07:39;;;;;;;3.25;3.05;;;20.20;50.20;;;;;;5072635;28;20189;-70
2022/04/23 06:10:06;;;;;;;3.15;2.95;;;20.20;50.20;;;;;;5056627;28;20280;-70
2022/04/23 06:12:33;;;;;;;3.00;2.80;;;20.20;50.20;;;;;;5073077;28;20237;-70
2022/04/23 06:15:00;;;;;;;2.45;2.33;;;20.20;50.20;;;;;;5073684;28;20273;-70
2022/04/23 06:17:27;;;;;;;2.83;2.63;;;20.20;50.20;;;;;;5075238;28;20194;-70
2022/04/23 06:19:55;;;;;;;2.83;2.63;;;20.20;50.80;;;;;;5072686;28;20185;-70
2022/04/23 06:22:22;;;;;;;2.92;2.72;;;20.20;50.20;;;;;;5073004;28;20213;-70
2022/04/23 06:24:50;;;;;;;2.75;2.55;;;20.20;50.20;;;;;;5074698;28;20264;-70
2022/04/23 06:27:16;;;;;;;2.58;2.38;;;20.20;50.10;;;;;;5073108;28;20182;-70
2022/04/23 06:29:42;;;;;;;2.83;2.63;;;20.20;50.10;;;;;;5055577;28;20189;-71
2022/04/23 06:32:09;;;;;;;2.40;2.30;;;20.20;50.10;;;;;;5055205;28;20213;-70
2022/04/23 06:34:37;;;;;;;2.50;2.40;;;20.20;50.10;;;;;;5051384;28;20255;-71
2022/04/23 06:37:06;;;;;;;2.55;2.35;;;20.20;50.10;;;;;;5062075;28;20724;-70
2022/04/23 06:39:32;;;;;;;3.00;2.80;;;20.20;50.10;;;;;;5042853;28;20197;-70
2022/04/23 06:41:59;;;;;;;3.45;3.15;;;20.20;50.10;;;;;;5025955;28;20201;-71
2022/04/23 06:44:25;;;;;;;3.53;3.33;;;20.20;50.10;;;;;;5041900;28;20660;-70
2022/04/23 06:46:50;;;;;;;3.45;3.25;;;20.20;50.10;;;;;;5072770;28;20194;-70
2022/04/23 06:49:16;;;;;;;2.90;2.70;;;20.20;50.10;;;;;;5037779;28;20693;-69
2022/04/23 06:51:43;;;;;;;4.00;3.70;;;20.20;50.10;;;;;;5054615;28;20177;-70
2022/04/23 06:54:09;;;;;;;3.15;2.90;;;20.20;50.40;;;;;;5072665;28;20178;-70
2022/04/23 06:56:37;;;;;;;3.10;2.90;;;20.20;50.10;;;;;;5071349;28;20726;-70
2022/04/23 06:59:04;;;;;;;2.97;2.78;;;20.20;50.10;;;;;;5054944;28;20189;-70
2022/04/23 07:01:29;;;;;;;3.03;2.83;;;20.20;50.00;;;;;;5064466;28;20189;-70
2022/04/23 07:03:55;;;;;;;2.72;2.53;;;20.20;50.10;;;;;;5069070;28;20208;-70
2022/04/23 07:06:21;;;;;;;2.55;2.45;;;20.20;50.10;;;;;;5052076;28;20196;-71
2022/04/23 07:08:47;;;;;;;2.10;2.00;;;20.20;50.10;;;;;;5080993;28;20189;-71
2022/04/23 07:11:12;;;;;;;2.30;2.20;;;20.20;50.00;;;;;;5074954;28;20161;-70
2022/04/23 07:13:38;;;;;;;2.40;2.25;;;20.20;50.00;;;;;;5092611;28;20201;-70
2022/04/23 07:16:09;;;;;;;2.22;2.10;;;20.20;50.30;;;;;;5074626;28;20234;-70
2022/04/23 07:18:39;;;;;;;2.60;2.40;;;20.20;50.00;;;;;;5074733;28;20261;-70
2022/04/23 07:21:05;;;;;;;2.20;2.10;;;20.20;50.00;;;;;;5091298;28;20185;-70
2022/04/23 07:26:15;;;;;;;2.83;2.63;;;20.20;50.00;;;;;;5092482;28;20173;-70
2022/04/23 07:28:41;;;;;;;2.60;2.40;;;20.20;50.00;;;;;;5074436;28;20177;-70
2022/04/23 07:31:07;;;;;;;2.72;2.53;;;20.20;50.00;;;;;;5074220;28;20732;-70
2022/04/23 07:39:01;;;;;;;2.30;2.20;;;20.20;50.10;;;;;;5091435;28;20193;-71
2022/04/23 07:41:27;;;;;;;2.47;2.28;;;20.20;50.10;;;;;;5091192;28;20216;-70
2022/04/23 07:43:54;;;;;;;2.08;1.98;;;20.20;50.10;;;;;;5074172;28;20200;-70
2022/04/23 07:46:20;;;;;;;2.10;2.00;;;20.20;50.10;;;;;;5061240;28;20562;-70
2022/04/23 07:48:46;;;;;;;2.10;2.00;;;20.20;50.00;;;;;;5078515;28;20169;-71
2022/04/23 07:51:12;;;;;;;2.40;2.30;;;20.20;50.10;;;;;;5095247;28;20708;-70
2022/04/23 07:53:38;;;;;;;2.15;2.05;;;20.20;50.00;;;;;;5069350;28;20319;-70
2022/04/23 07:56:05;;;;;;;2.30;2.10;;;20.20;50.00;;;;;;5087093;28;20184;-70
2022/04/23 07:58:31;;;;;;;2.58;2.38;;;20.20;50.00;;;;;;5077953;28;20208;-70
2022/04/23 08:00:57;;;;;;;2.10;2.00;;;20.20;50.00;;;;;;5083891;28;20195;-70
2022/04/23 08:03:22;;;;;;;2.25;2.15;;;20.20;50.00;;;;;;5086381;28;20192;-70
2022/04/23 08:05:48;;;;;;;2.35;2.25;;;20.20;50.00;;;;;;5078597;28;20211;-71
2022/04/23 08:08:17;;;;;;;2.70;2.50;;;20.20;50.00;;;;;;5068937;28;20185;-71
2022/04/23 08:10:44;;;;;;;2.90;2.70;;;20.20;50.00;;;;;;5081457;28;20182;-70
2022/04/23 08:13:11;;;;;;;2.85;2.65;;;20.20;50.00;;;;;;5058084;28;20234;-70
2022/04/23 08:15:37;;;;;;;3.17;2.97;;;20.20;50.00;;;;;;5074766;28;20186;-69
2022/04/23 08:18:02;;;;;;;2.88;2.67;;;20.20;50.00;;;;;;5057786;28;20223;-69
2022/04/23 08:20:31;;;;;;;3.22;3.03;;;20.20;50.00;;;;;;5074620;28;20185;-70
2022/04/23 08:22:57;;;;;;;3.13;2.80;;;20.20;50.00;;;;;;5057650;28;20208;-70
2022/04/23 08:25:23;;;;;;;3.50;3.08;;;20.20;50.00;;;;;;5074662;28;20185;-71
2022/04/23 08:30:34;;;;;;;5.65;3.33;;;20.20;50.20;;;;;;5075907;28;20186;-71
2022/04/23 08:30:43;;;;;;;4.18;2.20;;;20.30;53.10;;;;;;5075290;28;20209;-72
2022/04/23 08:33:09;;;;;;;5.65;2.58;;;20.40;54.40;;;;;;5074166;28;20241;-72
2022/04/23 08:35:38;;;;;;;4.90;2.30;;;20.40;54.50;;;;;;5075387;28;20189;-70
2022/04/23 08:38:05;;;;;;;3.75;2.33;;;20.50;54.60;;;;;;5057225;28;20213;-71
2022/04/23 08:40:41;;;;;;;5.38;2.20;;;20.50;54.60;;;;;;5075252;28;20177;-71
2022/04/23 08:43:07;;;;;;;2.80;2.30;;;20.50;54.70;;;;;;5075045;28;20228;-70
2022/04/23 08:45:37;;;;;;;4.63;2.40;;;20.50;54.80;;;;;;5073895;28;20185;-71
2022/04/23 08:48:14;;;;;;;4.72;3.08;;;20.50;54.80;;;;;;5073791;28;20190;-71
2022/04/23 08:50:43;;;;;;;8.05;3.63;;;20.50;54.80;;;;;;5073752;28;20224;-71
2022/04/23 08:53:17;;;;;;;4.85;2.80;;;20.50;54.80;;;;;;5039447;28;20213;-70
2022/04/23 08:55:45;;;;;;;5.63;3.17;;;20.50;54.80;;;;;;5037303;28;20232;-71
2022/04/23 08:58:15;;;;;;;8.18;3.55;;;20.60;55.00;;;;;;5021618;28;20215;-71
2022/04/23 09:00:41;;;;;;;4.05;2.70;;;20.60;54.90;;;;;;5038460;28;20671;-70
2022/04/23 09:03:14;;;;;;;6.38;2.60;;;20.60;54.90;;;;;;5055124;28;20229;-71
2022/04/23 09:05:40;;;;;;;6.05;2.60;;;20.60;54.90;;;;;;5054947;28;20249;-70
2022/04/23 09:08:07;;;;;;;2.75;2.35;;;20.60;54.80;;;;;;5054438;28;20189;-71
2022/04/23 09:10:54;;;;;;;8.63;2.53;;;20.60;54.70;;;;;;5038168;28;20720;-71
2022/04/23 09:13:31;;;;;;;7.05;3.08;;;20.60;54.70;;;;;;5072670;28;20730;-71
2022/04/23 09:24:19;;;;;;;10.77;4.30;;;20.70;55.00;;;;;;5072470;28;20235;-70
2022/04/23 09:27:03;;;;;;;13.55;4.28;;;20.70;55.00;;;;;;5054386;28;20186;-71
2022/04/23 09:29:30;;;;;;;12.25;5.28;;;20.70;55.00;;;;;;5054602;28;20174;-70
2022/04/23 09:32:14;;;;;;;10.93;6.20;;;20.70;55.10;;;;;;5054212;28;20197;-70
2022/04/23 09:34:41;;;;;;;14.38;6.93;;;20.70;55.20;;;;;;5071134;28;20189;-71
2022/04/23 09:37:08;;;;;;;17.65;7.22;;;20.70;55.20;;;;;;5038364;28;20307;-71
2022/04/23 09:39:38;;;;;;;13.77;7.50;;;20.70;55.30;;;;;;5053943;28;20186;-70
2022/04/23 09:42:15;;;;;;;11.80;7.70;;;20.70;55.40;;;;;;5070744;28;20210;-72
2022/04/23 09:44:43;;;;;;;16.05;8.57;;;20.70;55.40;;;;;;5037260;28;20177;-71
2022/04/23 09:47:09;;;;;;;13.27;7.35;;;20.70;55.40;;;;;;5054308;28;20190;-70
2022/04/23 09:49:35;;;;;;;16.73;8.32;;;20.70;55.40;;;;;;5056786;28;20192;-71
2022/04/23 09:52:07;;;;;;;13.35;7.70;;;20.70;55.40;;;;;;5056364;28;20217;-71
2022/04/23 09:54:35;;;;;;;14.73;7.53;;;20.70;55.50;;;;;;5039738;28;20182;-71
2022/04/23 09:57:01;;;;;;;13.65;7.18;;;20.70;55.60;;;;;;5052977;28;20211;-71
2022/04/23 09:59:27;;;;;;;14.98;7.55;;;20.70;55.60;;;;;;5035933;28;20184;-70
2022/04/23 10:01:55;;;;;;;12.93;6.65;;;20.70;55.70;;;;;;5036037;28;20277;-70
2022/04/23 10:04:26;;;;;;;14.70;7.55;;;20.70;55.60;;;;;;5036002;28;20179;-71
2022/04/23 10:06:54;;;;;;;12.43;7.18;;;20.80;55.70;;;;;;5019853;28;20177;-71
2022/04/23 10:09:26;;;;;;;13.32;7.45;;;20.70;55.60;;;;;;5055595;28;20170;-71
2022/04/23 10:12:02;;;;;;;12.05;7.55;;;20.80;55.60;;;;;;5073777;28;20173;-71
2022/04/23 10:14:35;;;;;;;10.23;6.78;;;20.70;55.60;;;;;;5073607;28;20177;-70
2022/04/23 10:17:05;;;;;;;12.98;7.43;;;20.80;56.20;;;;;;5055512;28;20595;-70
2022/04/23 10:19:32;;;;;;;11.80;8.00;;;20.80;55.70;;;;;;5055488;28;20181;-71
2022/04/23 10:22:33;;;;;;;13.60;7.28;;;20.80;55.70;;;;;;5039803;28;20213;-70
2022/04/23 10:25:53;;;;;;;10.52;7.05;;;20.70;55.70;;;;;;5055782;28;20173;-70
2022/04/23 10:28:19;;;;;;;14.38;7.07;;;20.80;55.80;;;;;;5055199;28;20243;-70
2022/04/23 10:30:46;;;;;;;13.20;7.65;;;20.80;55.90;;;;;;5038852;28;20235;-71
2022/04/23 10:33:28;;;;;;;13.57;7.55;;;20.70;55.90;;;;;;5055408;28;20224;-70
2022/04/23 10:36:14;;;;;;;14.35;7.70;;;20.80;56.10;;;;;;5055459;28;20231;-70
2022/04/23 10:38:45;;;;;;;15.25;8.27;;;20.80;56.10;;;;;;5054474;28;20249;-70
2022/04/23 10:41:13;;;;;;;19.80;7.20;;;20.80;56.10;;;;;;5038616;28;20174;-71
2022/04/23 10:43:50;;;;;;;10.68;7.25;;;20.80;56.10;;;;;;5054948;28;20286;-71
2022/04/23 10:46:38;;;;;;;13.57;6.88;;;20.80;56.20;;;;;;5038894;28;20173;-70
2022/04/23 10:49:20;;;;;;;12.27;7.07;;;20.80;56.10;;;;;;5071649;28;20339;-70
2022/04/23 10:51:57;;;;;;;11.23;7.10;;;20.70;56.00;;;;;;5038243;28;20664;-70
2022/04/23 10:54:55;;;;;;;11.95;7.97;;;20.70;56.10;;;;;;5069031;22;20230;-69
2022/04/23 10:57:23;;;;;;;13.20;8.13;;;20.70;56.00;;;;;;5031355;28;20253;-70
2022/04/23 10:59:50;;;;;;;12.95;7.80;;;20.70;56.00;;;;;;5047985;28;20285;-70
2022/04/23 11:02:21;;;;;;;11.77;6.80;;;20.70;56.10;;;;;;5032761;28;20254;-70
2022/04/23 11:13:28;;;;;;;13.75;7.57;;;20.80;56.20;;;;;;5031412;28;20222;-70
2022/04/23 11:16:16;;;;;;;15.57;6.80;;;20.80;56.20;;;;;;5032697;28;20203;-71
2022/04/23 11:18:44;;;;;;;9.02;6.70;;;20.80;56.20;;;;;;5047593;28;20215;-70
2022/04/23 11:21:13;;;;;;;11.02;6.63;;;20.80;56.30;;;;;;5030978;28;20374;-70
2022/04/23 11:23:42;;;;;;;10.68;6.60;;;20.80;56.30;;;;;;5031409;28;20207;-71
2022/04/23 11:26:12;;;;;;;11.65;6.80;;;20.80;56.40;;;;;;5032155;28;20187;-71
2022/04/23 11:28:42;;;;;;;13.23;6.53;;;20.80;56.90;;;;;;5030644;28;20187;-70
2022/04/23 11:31:10;;;;;;;12.10;6.60;;;20.80;56.90;;;;;;5047816;28;20181;-70
2022/04/23 11:33:36;;;;;;;14.55;6.70;;;20.80;56.90;;;;;;5014623;28;20269;-70
2022/04/23 11:36:04;;;;;;;15.35;6.32;;;20.80;56.90;;;;;;5014954;28;20187;-69
2022/04/23 11:38:31;;;;;;;11.80;6.82;;;20.80;56.90;;;;;;5047603;28;20239;-71
2022/04/23 11:40:57;;;;;;;10.32;6.72;;;20.80;57.00;;;;;;5014860;28;20183;-71
2022/04/23 11:43:35;;;;;;;10.73;6.15;;;20.80;57.00;;;;;;5030936;28;20205;-70
2022/04/23 11:46:08;;;;;;;13.43;7.55;;;20.80;57.20;;;;;;5031428;28;20219;-70
2022/04/23 11:48:42;;;;;;;12.05;8.30;;;20.80;57.20;;;;;;5032181;28;20226;-70
2022/04/23 11:51:12;;;;;;;11.20;7.20;;;20.80;57.20;;;;;;5032223;28;20190;-70
2022/04/23 11:54:00;;;;;;;11.05;7.05;;;20.80;57.30;;;;;;5031121;28;20215;-70
2022/04/23 11:56:36;;;;;;;12.02;7.97;;;20.80;57.30;;;;;;5014644;28;20179;-70
2022/04/23 11:59:09;;;;;;;13.40;7.93;;;20.80;57.30;;;;;;5014412;28;20186;-70
2022/04/23 12:01:36;;;;;;;10.55;7.30;;;20.80;57.30;;;;;;5014718;28;20258;-70
2022/04/23 12:04:02;;;;;;;11.25;7.45;;;20.80;57.30;;;;;;5014297;28;20199;-70
2022/04/23 12:06:46;;;;;;;12.20;8.80;;;20.80;57.30;;;;;;5014690;28;20189;-70
2022/04/23 12:09:12;;;;;;;12.93;8.57;;;20.80;57.40;;;;;;5031993;28;20195;-70
2022/04/23 12:11:39;;;;;;;11.18;8.27;;;20.80;57.40;;;;;;5047533;28;20623;-71
2022/04/23 12:14:05;;;;;;;14.93;9.40;;;20.80;57.30;;;;;;5030762;28;20203;-70
2022/04/23 12:16:50;;;;;;;10.65;9.35;;;20.80;57.40;;;;;;5030941;28;20183;-70
2022/04/23 12:19:17;;;;;;;12.02;10.00;;;20.80;57.40;;;;;;5030813;28;20184;-70
2022/04/23 12:21:57;;;;;;;16.75;14.95;;;20.80;57.40;;;;;;5030972;28;20179;-70
2022/04/23 12:24:35;;;;;;;18.63;15.52;;;20.80;57.50;;;;;;5034115;28;20199;-69
2022/04/23 12:27:05;;;;;;;16.23;13.80;;;20.80;57.50;;;;;;5047221;28;20629;-70
2022/04/23 12:40:49;;;;;;;11.57;10.38;;;20.70;56.90;;;;;;5034121;28;20180;-70
2022/04/23 12:43:28;;;;;;;11.32;10.23;;;20.70;56.80;;;;;;5034210;28;20209;-69
2022/04/23 12:46:09;;;;;;;11.00;9.85;;;20.70;56.60;;;;;;5034423;28;20262;-68
2022/04/23 12:48:56;;;;;;;10.20;9.10;;;20.60;56.40;;;;;;5033849;28;20223;-69
2022/04/23 12:51:22;;;;;;;10.88;9.68;;;20.70;56.60;;;;;;5035036;28;20186;-69
2022/04/23 12:53:48;;;;;;;12.30;9.40;;;20.60;56.50;;;;;;5017322;28;20221;-69
2022/04/23 12:56:16;;;;;;;10.38;9.30;;;20.70;57.20;;;;;;5034195;28;20187;-69
2022/04/23 12:58:42;;;;;;;9.05;8.15;;;20.60;56.40;;;;;;5017358;28;20211;-69
2022/04/23 13:01:09;;;;;;;10.23;8.85;;;20.60;56.30;;;;;;5033829;28;20255;-69
2022/04/23 13:03:42;;;;;;;10.35;8.20;;;20.70;56.40;;;;;;5033724;28;20298;-69
2022/04/23 13:08:56;;;;;;;8.52;7.65;;;20.60;56.20;;;;;;5033708;28;20558;-70
2022/04/23 13:11:26;;;;;;;8.93;7.15;;;20.60;56.10;;;;;;5033484;28;20563;-69
2022/04/23 13:13:55;;;;;;;8.55;7.63;;;20.60;56.10;;;;;;5050422;28;20288;-70
2022/04/23 13:16:25;;;;;;;10.65;8.07;;;20.60;56.10;;;;;;5016950;28;20184;-70
2022/04/23 13:18:57;;;;;;;9.30;7.07;;;20.60;56.20;;;;;;5033603;28;20662;-69
2022/04/23 13:21:26;;;;;;;8.93;7.60;;;20.60;56.20;;;;;;5033467;28;20194;-70
2022/04/23 13:23:53;;;;;;;7.65;6.93;;;20.60;56.10;;;;;;5033553;28;20346;-69
2022/04/23 13:26:25;;;;;;;8.77;7.25;;;20.60;56.10;;;;;;5016805;28;20307;-70
2022/04/23 13:28:51;;;;;;;9.48;7.28;;;20.60;56.00;;;;;;5016712;28;20202;-69
2022/04/23 13:31:17;;;;;;;9.20;7.45;;;20.60;56.60;;;;;;5016710;28;20195;-70
2022/04/23 13:33:43;;;;;;;7.70;6.90;;;20.60;56.00;;;;;;5029874;28;20207;-71